sensor_id;sensor_type;location;lat;lon;timestamp;temperature;humidity
21039;DHT22;10678;51.002;4.786;2023-08-07T00:00:17;15.00;99.90
21039;DHT22;10678;51.002;4.786;2023-08-07T00:02:43;15.00;99.90
21039;DHT22;10678;51.002;4.786;2023-08-07T00:05:10;14.90;99.90
21039;DHT22;10678;51.002;4.786;2023-08-07T00:07:35;15.00;99.90
21039;DHT22;10678;51.002;4.786;2023-08-07T00:10:01;14.90;99.90
21039;DHT22;10678;51.002;4.786;2023-08-07T00:12:27;14.90;99.90
21039;DHT22;10678;51.002;4.786;2023-08-07T00:14:53;14.90;99.90
21039;DHT22;10678;51.002;4.786;2023-08-07T00:17:18;14.90;99.90
21039;DHT22;10678;51.002;4.786;2023-08-07T00:19:44;14.90;99.90
21039;DHT22;10678;51.002;4.786;2023-08-07T00:22:10;14.80;99.90
21039;DHT22;10678;51.002;4.786;2023-08-07T00:24:35;14.80;99.90
21039;DHT22;10678;51.002;4.786;2023-08-07T00:27:01;14.90;99.90
21039;DHT22;10678;51.002;4.786;2023-08-07T00:29:27;14.90;99.90
21039;DHT22;10678;51.002;4.786;2023-08-07T00:31:52;14.80;99.90
21039;DHT22;10678;51.002;4.786;2023-08-07T00:34:18;14.80;99.90
21039;DHT22;10678;51.002;4.786;2023-08-07T00:36:44;14.70;99.90
21039;DHT22;10678;51.002;4.786;2023-08-07T00:39:09;14.70;99.90
21039;DHT22;10678;51.002;4.786;2023-08-07T00:41:35;14.60;99.90
21039;DHT22;10678;51.002;4.786;2023-08-07T00:44:00;14.60;99.90
21039;DHT22;10678;51.002;4.786;2023-08-07T00:46:30;14.60;99.90
21039;DHT22;10678;51.002;4.786;2023-08-07T00:48:56;14.60;99.90
21039;DHT22;10678;51.002;4.786;2023-08-07T00:51:23;14.60;99.90
21039;DHT22;10678;51.002;4.786;2023-08-07T00:53:49;14.60;99.90
21039;DHT22;10678;51.002;4.786;2023-08-07T00:56:15;14.60;99.90
21039;DHT22;10678;51.002;4.786;2023-08-07T00:58:41;14.50;99.90
21039;DHT22;10678;51.002;4.786;2023-08-07T01:01:07;14.50;99.90
21039;DHT22;10678;51.002;4.786;2023-08-07T01:03:32;14.50;99.90
21039;DHT22;10678;51.002;4.786;2023-08-07T01:05:58;14.60;99.90
21039;DHT22;10678;51.002;4.786;2023-08-07T01:08:25;14.60;99.90
21039;DHT22;10678;51.002;4.786;2023-08-07T01:13:32;14.60;99.90
21039;DHT22;10678;51.002;4.786;2023-08-07T01:16:04;14.70;99.90
21039;DHT22;10678;51.002;4.786;2023-08-07T01:18:33;14.70;99.90
21039;DHT22;10678;51.002;4.786;2023-08-07T01:21:00;14.70;99.90
21039;DHT22;10678;51.002;4.786;2023-08-07T01:23:25;14.60;99.90
21039;DHT22;10678;51.002;4.786;2023-08-07T01:25:51;14.70;99.90
21039;DHT22;10678;51.002;4.786;2023-08-07T01:28:58;14.70;99.90
21039;DHT22;10678;51.002;4.786;2023-08-07T01:31:15;14.70;99.90
21039;DHT22;10678;51.002;4.786;2023-08-07T01:33:54;14.60;99.90
21039;DHT22;10678;51.002;4.786;2023-08-07T01:36:24;14.60;99.90
21039;DHT22;10678;51.002;4.786;2023-08-07T01:38:53;14.60;99.90
21039;DHT22;10678;51.002;4.786;2023-08-07T01:41:19;14.60;99.90
21039;DHT22;10678;51.002;4.786;2023-08-07T01:43:45;14.50;99.90
21039;DHT22;10678;51.002;4.786;2023-08-07T01:46:11;14.50;99.90
21039;DHT22;10678;51.002;4.786;2023-08-07T01:48:36;14.50;99.90
21039;DHT22;10678;51.002;4.786;2023-08-07T01:51:02;14.50;99.90
21039;DHT22;10678;51.002;4.786;2023-08-07T01:53:28;14.40;99.90
21039;DHT22;10678;51.002;4.786;2023-08-07T01:55:53;14.50;99.90
21039;DHT22;10678;51.002;4.786;2023-08-07T01:58:19;14.40;99.90
21039;DHT22;10678;51.002;4.786;2023-08-07T02:00:45;14.50;99.90
21039;DHT22;10678;51.002;4.786;2023-08-07T02:03:10;14.50;99.90
21039;DHT22;10678;51.002;4.786;2023-08-07T02:05:36;14.50;99.90
21039;DHT22;10678;51.002;4.786;2023-08-07T02:08:01;14.50;99.90
21039;DHT22;10678;51.002;4.786;2023-08-07T02:10:27;14.40;99.90
21039;DHT22;10678;51.002;4.786;2023-08-07T02:12:53;14.30;99.90
21039;DHT22;10678;51.002;4.786;2023-08-07T02:15:19;14.40;99.90
21039;DHT22;10678;51.002;4.786;2023-08-07T02:17:45;14.40;99.90
21039;DHT22;10678;51.002;4.786;2023-08-07T02:20:10;14.30;99.90
21039;DHT22;10678;51.002;4.786;2023-08-07T02:22:36;14.40;99.90
21039;DHT22;10678;51.002;4.786;2023-08-07T02:25:02;14.40;99.90
21039;DHT22;10678;51.002;4.786;2023-08-07T02:27:28;14.40;99.90
21039;DHT22;10678;51.002;4.786;2023-08-07T02:29:53;14.50;99.90
21039;DHT22;10678;51.002;4.786;2023-08-07T02:32:19;14.50;99.90
21039;DHT22;10678;51.002;4.786;2023-08-07T02:34:45;14.40;99.90
21039;DHT22;10678;51.002;4.786;2023-08-07T02:37:11;14.40;99.90
21039;DHT22;10678;51.002;4.786;2023-08-07T02:39:36;14.30;99.90
21039;DHT22;10678;51.002;4.786;2023-08-07T02:42:02;14.30;99.90
21039;DHT22;10678;51.002;4.786;2023-08-07T02:44:28;14.30;99.90
21039;DHT22;10678;51.002;4.786;2023-08-07T02:46:54;14.30;99.90
21039;DHT22;10678;51.002;4.786;2023-08-07T02:49:20;14.30;99.90
21039;DHT22;10678;51.002;4.786;2023-08-07T02:51:45;14.20;99.90
21039;DHT22;10678;51.002;4.786;2023-08-07T02:54:11;14.20;99.90
21039;DHT22;10678;51.002;4.786;2023-08-07T02:56:37;14.20;99.90
21039;DHT22;10678;51.002;4.786;2023-08-07T02:59:02;14.20;99.90
21039;DHT22;10678;51.002;4.786;2023-08-07T03:01:28;14.20;99.90
21039;DHT22;10678;51.002;4.786;2023-08-07T03:03:54;14.20;99.90
21039;DHT22;10678;51.002;4.786;2023-08-07T03:06:20;14.20;99.90
21039;DHT22;10678;51.002;4.786;2023-08-07T03:08:45;14.20;99.90
21039;DHT22;10678;51.002;4.786;2023-08-07T03:11:11;14.20;99.90
21039;DHT22;10678;51.002;4.786;2023-08-07T03:13:37;14.20;99.90
21039;DHT22;10678;51.002;4.786;2023-08-07T03:16:04;14.10;99.90
21039;DHT22;10678;51.002;4.786;2023-08-07T03:18:30;14.00;99.90
21039;DHT22;10678;51.002;4.786;2023-08-07T03:20:56;14.00;99.90
21039;DHT22;10678;51.002;4.786;2023-08-07T03:23:23;14.00;99.90
21039;DHT22;10678;51.002;4.786;2023-08-07T03:25:49;14.10;99.90
21039;DHT22;10678;51.002;4.786;2023-08-07T03:28:15;14.10;99.90
21039;DHT22;10678;51.002;4.786;2023-08-07T03:30:41;14.10;99.90
21039;DHT22;10678;51.002;4.786;2023-08-07T03:33:07;14.10;99.90
21039;DHT22;10678;51.002;4.786;2023-08-07T03:35:32;14.10;99.90
21039;DHT22;10678;51.002;4.786;2023-08-07T03:37:58;14.10;99.90
21039;DHT22;10678;51.002;4.786;2023-08-07T03:40:24;14.10;99.90
21039;DHT22;10678;51.002;4.786;2023-08-07T03:42:49;14.10;99.90
21039;DHT22;10678;51.002;4.786;2023-08-07T03:45:15;14.20;99.90
21039;DHT22;10678;51.002;4.786;2023-08-07T03:47:41;14.10;99.90
21039;DHT22;10678;51.002;4.786;2023-08-07T03:50:06;14.10;99.90
21039;DHT22;10678;51.002;4.786;2023-08-07T03:52:32;14.20;99.90
21039;DHT22;10678;51.002;4.786;2023-08-07T03:54:58;14.20;99.90
21039;DHT22;10678;51.002;4.786;2023-08-07T03:57:23;14.30;99.90
21039;DHT22;10678;51.002;4.786;2023-08-07T03:59:49;14.20;99.90
21039;DHT22;10678;51.002;4.786;2023-08-07T04:02:15;14.20;99.90
21039;DHT22;10678;51.002;4.786;2023-08-07T04:04:40;14.20;99.90
21039;DHT22;10678;51.002;4.786;2023-08-07T04:07:06;14.30;99.90
21039;DHT22;10678;51.002;4.786;2023-08-07T04:09:33;14.30;99.90
21039;DHT22;10678;51.002;4.786;2023-08-07T04:11:59;14.30;99.90
21039;DHT22;10678;51.002;4.786;2023-08-07T04:14:24;14.30;99.90
21039;DHT22;10678;51.002;4.786;2023-08-07T04:16:51;14.40;99.90
21039;DHT22;10678;51.002;4.786;2023-08-07T04:19:16;14.40;99.90
21039;DHT22;10678;51.002;4.786;2023-08-07T04:21:42;14.40;99.90
21039;DHT22;10678;51.002;4.786;2023-08-07T04:24:07;14.40;99.90
21039;DHT22;10678;51.002;4.786;2023-08-07T04:26:37;14.40;99.90
21039;DHT22;10678;51.002;4.786;2023-08-07T04:29:03;14.40;99.90
21039;DHT22;10678;51.002;4.786;2023-08-07T04:31:29;14.50;99.90
21039;DHT22;10678;51.002;4.786;2023-08-07T04:33:57;14.50;99.90
21039;DHT22;10678;51.002;4.786;2023-08-07T04:36:23;14.50;99.90
21039;DHT22;10678;51.002;4.786;2023-08-07T04:38:49;14.50;99.90
21039;DHT22;10678;51.002;4.786;2023-08-07T04:41:15;14.50;99.90
21039;DHT22;10678;51.002;4.786;2023-08-07T04:43:41;14.50;99.90
21039;DHT22;10678;51.002;4.786;2023-08-07T04:46:08;14.60;99.90
21039;DHT22;10678;51.002;4.786;2023-08-07T04:48:37;14.50;99.90
21039;DHT22;10678;51.002;4.786;2023-08-07T04:51:03;14.60;99.90
21039;DHT22;10678;51.002;4.786;2023-08-07T04:53:29;14.60;99.90
21039;DHT22;10678;51.002;4.786;2023-08-07T04:55:55;14.60;99.90
21039;DHT22;10678;51.002;4.786;2023-08-07T04:58:20;14.60;99.90
21039;DHT22;10678;51.002;4.786;2023-08-07T05:00:46;14.60;99.90
21039;DHT22;10678;51.002;4.786;2023-08-07T05:03:12;14.60;99.90
21039;DHT22;10678;51.002;4.786;2023-08-07T05:05:38;14.60;99.90
21039;DHT22;10678;51.002;4.786;2023-08-07T05:08:03;14.60;99.90
21039;DHT22;10678;51.002;4.786;2023-08-07T05:10:29;14.60;99.90
21039;DHT22;10678;51.002;4.786;2023-08-07T05:12:55;14.60;99.90
21039;DHT22;10678;51.002;4.786;2023-08-07T05:15:25;14.70;99.90
21039;DHT22;10678;51.002;4.786;2023-08-07T05:17:51;14.70;99.90
21039;DHT22;10678;51.002;4.786;2023-08-07T05:20:17;14.70;99.90
21039;DHT22;10678;51.002;4.786;2023-08-07T05:22:43;14.70;99.90
21039;DHT22;10678;51.002;4.786;2023-08-07T05:25:09;14.60;99.90
21039;DHT22;10678;51.002;4.786;2023-08-07T05:27:36;14.60;99.90
21039;DHT22;10678;51.002;4.786;2023-08-07T05:30:03;14.60;99.90
21039;DHT22;10678;51.002;4.786;2023-08-07T05:32:28;14.60;99.90
21039;DHT22;10678;51.002;4.786;2023-08-07T05:34:54;14.70;99.90
21039;DHT22;10678;51.002;4.786;2023-08-07T05:37:20;14.70;99.90
21039;DHT22;10678;51.002;4.786;2023-08-07T05:39:45;14.70;99.90
21039;DHT22;10678;51.002;4.786;2023-08-07T05:42:11;14.60;99.90
21039;DHT22;10678;51.002;4.786;2023-08-07T05:44:37;14.60;99.90
21039;DHT22;10678;51.002;4.786;2023-08-07T05:47:03;14.60;99.90
21039;DHT22;10678;51.002;4.786;2023-08-07T05:49:29;14.60;99.90
21039;DHT22;10678;51.002;4.786;2023-08-07T05:51:55;14.60;99.90
21039;DHT22;10678;51.002;4.786;2023-08-07T05:54:21;14.60;99.90
21039;DHT22;10678;51.002;4.786;2023-08-07T05:56:46;14.60;99.90
21039;DHT22;10678;51.002;4.786;2023-08-07T05:59:12;14.60;99.90
21039;DHT22;10678;51.002;4.786;2023-08-07T06:01:38;14.70;99.90
21039;DHT22;10678;51.002;4.786;2023-08-07T06:04:03;14.70;99.90
21039;DHT22;10678;51.002;4.786;2023-08-07T06:06:29;14.70;99.90
21039;DHT22;10678;51.002;4.786;2023-08-07T06:08:55;14.70;99.90
21039;DHT22;10678;51.002;4.786;2023-08-07T06:11:21;14.80;99.90
21039;DHT22;10678;51.002;4.786;2023-08-07T06:13:48;15.00;99.90
21039;DHT22;10678;51.002;4.786;2023-08-07T06:16:13;15.10;99.90
21039;DHT22;10678;51.002;4.786;2023-08-07T06:18:39;15.30;99.90
21039;DHT22;10678;51.002;4.786;2023-08-07T06:21:05;15.50;99.90
21039;DHT22;10678;51.002;4.786;2023-08-07T06:23:33;15.70;99.90
21039;DHT22;10678;51.002;4.786;2023-08-07T06:25:58;16.00;99.90
21039;DHT22;10678;51.002;4.786;2023-08-07T06:28:24;16.20;99.90
21039;DHT22;10678;51.002;4.786;2023-08-07T06:30:50;16.30;99.90
21039;DHT22;10678;51.002;4.786;2023-08-07T06:33:15;16.50;99.90
21039;DHT22;10678;51.002;4.786;2023-08-07T06:35:41;16.60;99.90
21039;DHT22;10678;51.002;4.786;2023-08-07T06:38:08;16.80;99.90
21039;DHT22;10678;51.002;4.786;2023-08-07T06:40:37;16.90;99.90
21039;DHT22;10678;51.002;4.786;2023-08-07T06:43:03;17.20;99.90
21039;DHT22;10678;51.002;4.786;2023-08-07T06:45:29;17.30;99.90
21039;DHT22;10678;51.002;4.786;2023-08-07T06:47:54;17.30;99.90
21039;DHT22;10678;51.002;4.786;2023-08-07T06:50:21;17.50;99.90
21039;DHT22;10678;51.002;4.786;2023-08-07T06:52:47;17.60;99.90
21039;DHT22;10678;51.002;4.786;2023-08-07T06:55:12;17.80;99.90
21039;DHT22;10678;51.002;4.786;2023-08-07T06:57:38;18.00;99.90
21039;DHT22;10678;51.002;4.786;2023-08-07T07:00:05;18.10;99.90
21039;DHT22;10678;51.002;4.786;2023-08-07T07:02:31;18.20;99.90
21039;DHT22;10678;51.002;4.786;2023-08-07T07:04:57;18.30;99.90
21039;DHT22;10678;51.002;4.786;2023-08-07T07:07:23;18.50;99.90
21039;DHT22;10678;51.002;4.786;2023-08-07T07:09:49;18.50;99.90
21039;DHT22;10678;51.002;4.786;2023-08-07T07:12:14;18.60;99.90
21039;DHT22;10678;51.002;4.786;2023-08-07T07:14:40;18.60;99.90
21039;DHT22;10678;51.002;4.786;2023-08-07T07:17:05;18.40;99.90
21039;DHT22;10678;51.002;4.786;2023-08-07T07:19:31;18.40;99.90
21039;DHT22;10678;51.002;4.786;2023-08-07T07:21:57;18.40;99.90
21039;DHT22;10678;51.002;4.786;2023-08-07T07:24:22;18.40;99.90
21039;DHT22;10678;51.002;4.786;2023-08-07T07:26:48;18.40;99.90
21039;DHT22;10678;51.002;4.786;2023-08-07T07:29:13;18.40;99.90
21039;DHT22;10678;51.002;4.786;2023-08-07T07:31:39;18.40;99.90
21039;DHT22;10678;51.002;4.786;2023-08-07T07:34:05;18.40;99.90
21039;DHT22;10678;51.002;4.786;2023-08-07T07:36:30;18.40;99.90
21039;DHT22;10678;51.002;4.786;2023-08-07T07:38:56;18.40;99.90
21039;DHT22;10678;51.002;4.786;2023-08-07T07:41:22;18.40;99.90
21039;DHT22;10678;51.002;4.786;2023-08-07T07:43:48;18.60;99.90
21039;DHT22;10678;51.002;4.786;2023-08-07T07:46:14;18.80;99.90
21039;DHT22;10678;51.002;4.786;2023-08-07T07:48:40;19.00;99.90
21039;DHT22;10678;51.002;4.786;2023-08-07T07:51:05;19.30;99.90
21039;DHT22;10678;51.002;4.786;2023-08-07T07:53:31;19.40;99.90
21039;DHT22;10678;51.002;4.786;2023-08-07T07:55:57;19.20;99.90
21039;DHT22;10678;51.002;4.786;2023-08-07T07:58:23;19.30;99.90
21039;DHT22;10678;51.002;4.786;2023-08-07T08:00:49;19.50;99.90
21039;DHT22;10678;51.002;4.786;2023-08-07T08:03:17;20.00;99.90
21039;DHT22;10678;51.002;4.786;2023-08-07T08:05:43;20.50;99.90
21039;DHT22;10678;51.002;4.786;2023-08-07T08:08:08;21.10;99.90
21039;DHT22;10678;51.002;4.786;2023-08-07T08:10:34;21.30;99.90
21039;DHT22;10678;51.002;4.786;2023-08-07T08:13:00;21.50;99.90
21039;DHT22;10678;51.002;4.786;2023-08-07T08:15:26;21.50;99.90
21039;DHT22;10678;51.002;4.786;2023-08-07T08:17:52;21.40;99.90
21039;DHT22;10678;51.002;4.786;2023-08-07T08:20:17;21.10;99.90
21039;DHT22;10678;51.002;4.786;2023-08-07T08:22:45;21.10;99.90
21039;DHT22;10678;51.002;4.786;2023-08-07T08:25:11;21.30;99.90
21039;DHT22;10678;51.002;4.786;2023-08-07T08:27:37;21.70;99.90
21039;DHT22;10678;51.002;4.786;2023-08-07T08:30:04;22.00;99.90
21039;DHT22;10678;51.002;4.786;2023-08-07T08:32:29;22.00;99.90
21039;DHT22;10678;51.002;4.786;2023-08-07T08:34:55;21.80;99.90
21039;DHT22;10678;51.002;4.786;2023-08-07T08:37:21;21.40;99.90
21039;DHT22;10678;51.002;4.786;2023-08-07T08:39:47;20.80;99.90
21039;DHT22;10678;51.002;4.786;2023-08-07T08:42:12;20.60;99.90
21039;DHT22;10678;51.002;4.786;2023-08-07T08:44:39;20.30;99.90
21039;DHT22;10678;51.002;4.786;2023-08-07T08:47:07;20.20;99.90
21039;DHT22;10678;51.002;4.786;2023-08-07T08:49:47;20.10;99.90
21039;DHT22;10678;51.002;4.786;2023-08-07T08:52:14;20.80;99.90
21039;DHT22;10678;51.002;4.786;2023-08-07T08:54:41;21.90;99.90
21039;DHT22;10678;51.002;4.786;2023-08-07T08:57:07;23.00;99.90
21039;DHT22;10678;51.002;4.786;2023-08-07T08:59:33;23.80;99.90
21039;DHT22;10678;51.002;4.786;2023-08-07T09:01:59;24.40;99.90
21039;DHT22;10678;51.002;4.786;2023-08-07T09:04:25;24.30;99.90
21039;DHT22;10678;51.002;4.786;2023-08-07T09:06:51;24.00;99.90
21039;DHT22;10678;51.002;4.786;2023-08-07T09:09:19;24.20;99.90
21039;DHT22;10678;51.002;4.786;2023-08-07T09:11:45;24.60;99.90
21039;DHT22;10678;51.002;4.786;2023-08-07T09:14:16;25.00;99.90
21039;DHT22;10678;51.002;4.786;2023-08-07T09:16:47;25.30;99.90
21039;DHT22;10678;51.002;4.786;2023-08-07T09:19:13;25.50;99.90
21039;DHT22;10678;51.002;4.786;2023-08-07T09:21:39;25.70;99.90
21039;DHT22;10678;51.002;4.786;2023-08-07T09:24:05;25.50;99.90
21039;DHT22;10678;51.002;4.786;2023-08-07T09:26:32;25.00;99.90
21039;DHT22;10678;51.002;4.786;2023-08-07T09:28:59;24.80;99.90
21039;DHT22;10678;51.002;4.786;2023-08-07T09:31:26;24.80;99.90
21039;DHT22;10678;51.002;4.786;2023-08-07T09:33:52;24.40;99.90
21039;DHT22;10678;51.002;4.786;2023-08-07T09:36:17;24.40;99.90
21039;DHT22;10678;51.002;4.786;2023-08-07T09:38:44;24.80;99.90
21039;DHT22;10678;51.002;4.786;2023-08-07T09:41:17;25.40;99.90
21039;DHT22;10678;51.002;4.786;2023-08-07T09:43:43;25.90;99.90
21039;DHT22;10678;51.002;4.786;2023-08-07T09:46:09;26.00;99.90
21039;DHT22;10678;51.002;4.786;2023-08-07T09:48:42;25.60;99.90
21039;DHT22;10678;51.002;4.786;2023-08-07T09:51:09;25.50;99.90
21039;DHT22;10678;51.002;4.786;2023-08-07T09:53:34;25.80;99.90
21039;DHT22;10678;51.002;4.786;2023-08-07T09:56:01;26.20;99.90
21039;DHT22;10678;51.002;4.786;2023-08-07T09:58:28;26.30;99.90
21039;DHT22;10678;51.002;4.786;2023-08-07T10:00:54;25.90;99.90
21039;DHT22;10678;51.002;4.786;2023-08-07T10:03:24;25.20;99.90
21039;DHT22;10678;51.002;4.786;2023-08-07T10:05:51;25.10;99.90
21039;DHT22;10678;51.002;4.786;2023-08-07T10:08:16;25.40;99.90
21039;DHT22;10678;51.002;4.786;2023-08-07T10:10:43;25.90;99.90
21039;DHT22;10678;51.002;4.786;2023-08-07T10:13:12;26.30;99.90
21039;DHT22;10678;51.002;4.786;2023-08-07T10:15:38;26.60;99.90
21039;DHT22;10678;51.002;4.786;2023-08-07T10:18:06;26.80;99.90
21039;DHT22;10678;51.002;4.786;2023-08-07T10:20:31;26.90;99.90
21039;DHT22;10678;51.002;4.786;2023-08-07T10:23:00;26.60;99.90
21039;DHT22;10678;51.002;4.786;2023-08-07T10:25:30;26.50;99.90
21039;DHT22;10678;51.002;4.786;2023-08-07T10:27:57;26.70;99.90
21039;DHT22;10678;51.002;4.786;2023-08-07T10:30:26;27.20;99.90
21039;DHT22;10678;51.002;4.786;2023-08-07T10:32:52;27.30;99.90
21039;DHT22;10678;51.002;4.786;2023-08-07T10:35:32;27.50;99.90
21039;DHT22;10678;51.002;4.786;2023-08-07T10:38:10;27.50;99.90
21039;DHT22;10678;51.002;4.786;2023-08-07T10:40:58;27.00;99.90
21039;DHT22;10678;51.002;4.786;2023-08-07T10:43:25;26.40;99.90
21039;DHT22;10678;51.002;4.786;2023-08-07T10:45:53;26.70;99.90
21039;DHT22;10678;51.002;4.786;2023-08-07T10:48:20;26.80;99.90
21039;DHT22;10678;51.002;4.786;2023-08-07T10:51:03;26.60;99.90
21039;DHT22;10678;51.002;4.786;2023-08-07T10:53:29;26.30;99.90
21039;DHT22;10678;51.002;4.786;2023-08-07T10:55:55;26.30;99.90
21039;DHT22;10678;51.002;4.786;2023-08-07T10:58:25;26.80;99.90
21039;DHT22;10678;51.002;4.786;2023-08-07T11:03:40;26.80;99.90
21039;DHT22;10678;51.002;4.786;2023-08-07T11:06:09;26.40;99.90
21039;DHT22;10678;51.002;4.786;2023-08-07T11:08:36;26.80;99.90
21039;DHT22;10678;51.002;4.786;2023-08-07T11:11:05;27.10;99.90
21039;DHT22;10678;51.002;4.786;2023-08-07T11:13:32;27.20;99.90
21039;DHT22;10678;51.002;4.786;2023-08-07T11:15:58;27.00;99.90
21039;DHT22;10678;51.002;4.786;2023-08-07T11:18:25;26.90;99.90
21039;DHT22;10678;51.002;4.786;2023-08-07T11:20:52;27.00;99.90
21039;DHT22;10678;51.002;4.786;2023-08-07T11:23:23;27.50;99.90
21039;DHT22;10678;51.002;4.786;2023-08-07T11:25:49;28.10;99.90
21039;DHT22;10678;51.002;4.786;2023-08-07T11:28:18;27.80;99.90
21039;DHT22;10678;51.002;4.786;2023-08-07T11:30:46;28.10;99.90
21039;DHT22;10678;51.002;4.786;2023-08-07T11:33:12;28.20;99.90
21039;DHT22;10678;51.002;4.786;2023-08-07T11:35:45;27.30;99.90
21039;DHT22;10678;51.002;4.786;2023-08-07T11:38:11;26.30;99.90
21039;DHT22;10678;51.002;4.786;2023-08-07T11:40:37;26.20;99.90
21039;DHT22;10678;51.002;4.786;2023-08-07T11:43:02;26.00;99.90
21039;DHT22;10678;51.002;4.786;2023-08-07T11:45:29;25.50;99.90
21039;DHT22;10678;51.002;4.786;2023-08-07T11:47:55;25.50;99.90
21039;DHT22;10678;51.002;4.786;2023-08-07T11:50:22;26.20;99.90
21039;DHT22;10678;51.002;4.786;2023-08-07T11:52:48;26.60;99.90
21039;DHT22;10678;51.002;4.786;2023-08-07T11:55:14;26.90;99.90
21039;DHT22;10678;51.002;4.786;2023-08-07T11:57:40;27.60;99.90
21039;DHT22;10678;51.002;4.786;2023-08-07T12:00:08;28.10;99.90
21039;DHT22;10678;51.002;4.786;2023-08-07T12:02:44;28.60;99.90
21039;DHT22;10678;51.002;4.786;2023-08-07T12:05:11;29.00;99.90
21039;DHT22;10678;51.002;4.786;2023-08-07T12:07:40;28.70;99.90
21039;DHT22;10678;51.002;4.786;2023-08-07T12:10:11;27.90;99.90
21039;DHT22;10678;51.002;4.786;2023-08-07T12:12:37;27.40;99.90
21039;DHT22;10678;51.002;4.786;2023-08-07T12:15:12;26.90;99.90
21039;DHT22;10678;51.002;4.786;2023-08-07T12:17:38;26.50;99.90
21039;DHT22;10678;51.002;4.786;2023-08-07T12:20:08;26.30;99.90
21039;DHT22;10678;51.002;4.786;2023-08-07T12:22:36;26.10;99.90
21039;DHT22;10678;51.002;4.786;2023-08-07T12:25:02;26.50;99.90
21039;DHT22;10678;51.002;4.786;2023-08-07T12:27:28;27.00;99.90
21039;DHT22;10678;51.002;4.786;2023-08-07T12:29:54;26.60;99.90
21039;DHT22;10678;51.002;4.786;2023-08-07T12:32:19;26.40;99.90
21039;DHT22;10678;51.002;4.786;2023-08-07T12:34:45;26.20;99.90
21039;DHT22;10678;51.002;4.786;2023-08-07T12:37:11;26.10;99.90
21039;DHT22;10678;51.002;4.786;2023-08-07T12:39:36;25.80;99.90
21039;DHT22;10678;51.002;4.786;2023-08-07T12:42:02;25.60;99.90
21039;DHT22;10678;51.002;4.786;2023-08-07T12:44:30;25.50;99.90
21039;DHT22;10678;51.002;4.786;2023-08-07T12:46:56;25.50;99.90
21039;DHT22;10678;51.002;4.786;2023-08-07T12:49:21;25.70;99.90
21039;DHT22;10678;51.002;4.786;2023-08-07T12:51:49;26.50;99.90
21039;DHT22;10678;51.002;4.786;2023-08-07T12:54:14;27.30;99.90
21039;DHT22;10678;51.002;4.786;2023-08-07T12:56:40;27.20;99.90
21039;DHT22;10678;51.002;4.786;2023-08-07T12:59:06;27.70;99.90
21039;DHT22;10678;51.002;4.786;2023-08-07T13:01:32;28.10;99.90
21039;DHT22;10678;51.002;4.786;2023-08-07T13:03:58;28.10;99.90
21039;DHT22;10678;51.002;4.786;2023-08-07T13:06:23;28.00;99.90
21039;DHT22;10678;51.002;4.786;2023-08-07T13:08:49;27.60;99.90
21039;DHT22;10678;51.002;4.786;2023-08-07T13:11:15;27.60;99.90
21039;DHT22;10678;51.002;4.786;2023-08-07T13:13:40;27.50;99.90
21039;DHT22;10678;51.002;4.786;2023-08-07T13:16:06;27.50;99.90
21039;DHT22;10678;51.002;4.786;2023-08-07T13:18:32;27.50;99.90
21039;DHT22;10678;51.002;4.786;2023-08-07T13:20:58;27.70;99.90
21039;DHT22;10678;51.002;4.786;2023-08-07T13:23:24;28.20;99.90
21039;DHT22;10678;51.002;4.786;2023-08-07T13:25:50;28.60;99.90
21039;DHT22;10678;51.002;4.786;2023-08-07T13:28:15;28.20;99.90
21039;DHT22;10678;51.002;4.786;2023-08-07T13:30:42;27.50;99.90
21039;DHT22;10678;51.002;4.786;2023-08-07T13:33:07;27.00;99.90
21039;DHT22;10678;51.002;4.786;2023-08-07T13:35:33;26.40;99.90
21039;DHT22;10678;51.002;4.786;2023-08-07T13:37:58;26.00;99.90
21039;DHT22;10678;51.002;4.786;2023-08-07T13:40:24;25.50;99.90
21039;DHT22;10678;51.002;4.786;2023-08-07T13:42:50;25.10;99.90
21039;DHT22;10678;51.002;4.786;2023-08-07T13:45:15;24.80;99.90
21039;DHT22;10678;51.002;4.786;2023-08-07T13:47:41;24.40;99.90
21039;DHT22;10678;51.002;4.786;2023-08-07T13:50:07;24.30;99.90
21039;DHT22;10678;51.002;4.786;2023-08-07T13:52:34;24.10;99.90
21039;DHT22;10678;51.002;4.786;2023-08-07T13:55:00;24.20;99.90
21039;DHT22;10678;51.002;4.786;2023-08-07T13:57:26;24.50;99.90
21039;DHT22;10678;51.002;4.786;2023-08-07T13:59:51;24.90;99.90
21039;DHT22;10678;51.002;4.786;2023-08-07T14:02:19;25.00;99.90
21039;DHT22;10678;51.002;4.786;2023-08-07T14:04:45;24.80;99.90
21039;DHT22;10678;51.002;4.786;2023-08-07T14:07:11;24.60;99.90
21039;DHT22;10678;51.002;4.786;2023-08-07T14:09:37;24.50;99.90
21039;DHT22;10678;51.002;4.786;2023-08-07T14:12:03;24.20;99.90
21039;DHT22;10678;51.002;4.786;2023-08-07T14:14:29;24.00;99.90
21039;DHT22;10678;51.002;4.786;2023-08-07T14:16:54;23.60;99.90
21039;DHT22;10678;51.002;4.786;2023-08-07T14:19:23;23.40;99.90
21039;DHT22;10678;51.002;4.786;2023-08-07T14:21:49;23.50;99.90
21039;DHT22;10678;51.002;4.786;2023-08-07T14:24:15;23.40;99.90
21039;DHT22;10678;51.002;4.786;2023-08-07T14:26:42;23.10;99.90
21039;DHT22;10678;51.002;4.786;2023-08-07T14:29:08;22.90;99.90
21039;DHT22;10678;51.002;4.786;2023-08-07T14:31:33;22.70;99.90
21039;DHT22;10678;51.002;4.786;2023-08-07T14:33:59;22.80;99.90
21039;DHT22;10678;51.002;4.786;2023-08-07T14:36:25;23.00;99.90
21039;DHT22;10678;51.002;4.786;2023-08-07T14:38:50;23.30;99.90
21039;DHT22;10678;51.002;4.786;2023-08-07T14:41:17;23.20;99.90
21039;DHT22;10678;51.002;4.786;2023-08-07T14:43:43;23.10;99.90
21039;DHT22;10678;51.002;4.786;2023-08-07T14:46:09;23.00;99.90
21039;DHT22;10678;51.002;4.786;2023-08-07T14:48:35;22.90;99.90
21039;DHT22;10678;51.002;4.786;2023-08-07T14:51:01;23.00;99.90
21039;DHT22;10678;51.002;4.786;2023-08-07T14:53:26;22.90;99.90
21039;DHT22;10678;51.002;4.786;2023-08-07T14:55:52;23.10;99.90
21039;DHT22;10678;51.002;4.786;2023-08-07T14:58:18;23.30;99.90
21039;DHT22;10678;51.002;4.786;2023-08-07T15:00:43;23.20;99.90
21039;DHT22;10678;51.002;4.786;2023-08-07T15:03:09;23.00;99.90
21039;DHT22;10678;51.002;4.786;2023-08-07T15:05:35;22.80;99.90
21039;DHT22;10678;51.002;4.786;2023-08-07T15:08:01;22.70;99.90
21039;DHT22;10678;51.002;4.786;2023-08-07T15:10:27;22.60;99.90
21039;DHT22;10678;51.002;4.786;2023-08-07T15:12:53;22.50;99.90
21039;DHT22;10678;51.002;4.786;2023-08-07T15:15:19;22.40;99.90
21039;DHT22;10678;51.002;4.786;2023-08-07T15:17:45;22.50;99.90
21039;DHT22;10678;51.002;4.786;2023-08-07T15:20:10;22.60;99.90
21039;DHT22;10678;51.002;4.786;2023-08-07T15:22:36;22.80;99.90
21039;DHT22;10678;51.002;4.786;2023-08-07T15:25:02;22.80;99.90
21039;DHT22;10678;51.002;4.786;2023-08-07T15:27:28;22.90;99.90
21039;DHT22;10678;51.002;4.786;2023-08-07T15:29:53;22.90;99.90